Time;durP1;ratioP1;P1;durP2;ratioP2;P2;SDS_P1;SDS_P2;PMS_P1;PMS_P2;Temp;Humidity;BMP_temperature;BMP_pressure;BME280_temperature;BME280_humidity;BME280_pressure;Samples;Min_cycle;Max_cycle;Signal;HPM_P1;HPM_P2
2022/01/29 00:00:07;;;;;;;49.20;23.10;;;;;;;0.75;78.02;98549.71;25104;1312;3028435;-54
2022/01/29 00:02:41;;;;;;;53.50;23.10;;;;;;;0.59;78.76;98554.59;25144;1312;3056823;-56
2022/01/29 00:05:09;;;;;;;51.80;23.20;;;;;;;0.41;79.40;98565.04;25129;1312;3028370;-54
2022/01/29 00:07:41;;;;;;;45.40;18.00;;;;;;;0.26;80.30;98561.40;25090;1312;3049572;-56
2022/01/29 00:10:11;;;;;;;59.00;23.10;;;;;;;0.59;79.42;98554.77;25096;1312;3026275;-57
2022/01/29 00:12:40;;;;;;;47.90;22.10;;;;;;;1.09;78.18;98555.92;25139;1312;3028185;-58
2022/01/29 00:15:09;;;;;;;50.70;22.90;;;;;;;1.26;76.70;98553.58;25186;1312;3026603;-58
2022/01/29 00:17:39;;;;;;;54.60;23.00;;;;;;;0.92;77.46;98548.62;25188;1312;3026782;-54
2022/01/29 00:20:10;;;;;;;59.10;24.30;;;;;;;0.57;78.69;98554.66;25211;1312;3027072;-54
2022/01/29 00:22:40;;;;;;;60.70;25.60;;;;;;;0.45;79.47;98562.30;25106;1313;3026210;-56
2022/01/29 00:25:10;;;;;;;52.10;22.70;;;;;;;0.26;79.94;98563.46;25152;1311;3026717;-55
2022/01/29 00:27:40;;;;;;;39.80;17.70;;;;;;;0.42;79.94;98555.33;25173;1312;3028349;-56
2022/01/29 00:30:14;;;;;;;47.50;21.40;;;;;;;0.96;78.51;98540.88;25160;1312;3026500;-59
2022/01/29 00:32:44;;;;;;;53.40;22.60;;;;;;;1.07;77.17;98540.82;25093;1312;3052308;-55
2022/01/29 00:35:13;;;;;;;54.00;23.50;;;;;;;0.60;78.46;98548.71;25125;1312;3028540;-57
2022/01/29 00:37:42;;;;;;;50.40;22.60;;;;;;;0.65;78.44;98546.81;25101;1312;3027324;-57
2022/01/29 00:40:12;;;;;;;53.30;22.10;;;;;;;0.35;79.34;98543.87;25111;1312;3050326;-56
2022/01/29 00:42:41;;;;;;;59.40;23.70;;;;;;;0.24;79.81;98550.27;25148;1312;3027770;-54
2022/01/29 00:45:10;;;;;;;47.20;20.60;;;;;;;0.25;80.16;98543.69;25117;1312;3026648;-54
2022/01/29 00:47:38;;;;;;;47.90;21.80;;;;;;;0.30;79.46;98537.81;25086;1312;3053326;-57
2022/01/29 00:50:09;;;;;;;47.20;20.20;;;;;;;0.58;79.47;98532.23;25133;1312;3028816;-57
2022/01/29 00:52:38;;;;;;;50.70;21.20;;;;;;;0.73;78.49;98529.64;25089;1312;3058567;-57
2022/01/29 00:55:08;;;;;;;40.30;16.20;;;;;;;0.81;78.11;98522.45;25109;1312;3028894;-56
2022/01/29 00:57:40;;;;;;;49.90;22.70;;;;;;;1.10;76.79;98523.98;25079;1312;3051827;-55
2022/01/29 01:00:11;;;;;;;49.00;22.00;;;;;;;0.69;77.89;98527.00;25110;1312;3028333;-55
2022/01/29 01:02:40;;;;;;;59.80;25.60;;;;;;;0.48;78.41;98532.21;25072;1312;3026455;-55
2022/01/29 01:05:10;;;;;;;49.30;21.80;;;;;;;0.18;79.67;98532.89;25166;1312;3026369;-55
2022/01/29 01:07:38;;;;;;;45.90;17.80;;;;;;;0.21;79.93;98528.84;25112;1312;3026393;-57
2022/01/29 01:10:08;;;;;;;44.00;18.60;;;;;;;0.95;78.41;98524.19;25105;1312;3049247;-56
2022/01/29 01:12:38;;;;;;;48.00;22.50;;;;;;;1.14;76.76;98517.45;25126;1312;3026667;-55
2022/01/29 01:15:07;;;;;;;39.30;17.80;;;;;;;1.12;76.83;98519.95;25132;1312;3029026;-54
2022/01/29 01:17:37;;;;;;;56.80;22.50;;;;;;;0.95;76.56;98517.64;25125;1312;3050080;-57
2022/01/29 01:20:06;;;;;;;55.60;23.10;;;;;;;0.73;77.60;98526.02;25157;1312;3028329;-55
2022/01/29 01:22:37;;;;;;;57.30;23.10;;;;;;;0.70;77.98;98524.21;25155;1312;3059034;-56
2022/01/29 01:25:08;;;;;;;51.50;21.70;;;;;;;0.77;77.10;98518.27;25051;1312;3027593;-59
2022/01/29 01:27:37;;;;;;;54.40;23.20;;;;;;;0.43;78.11;98527.55;25110;1312;3053275;-55
2022/01/29 01:30:06;;;;;;;58.60;24.70;;;;;;;0.30;79.08;98526.63;25039;1312;3028060;-55
2022/01/29 01:32:37;;;;;;;56.10;23.00;;;;;;;0.63;78.64;98521.89;24909;1312;3347524;-55
2022/01/29 01:35:19;;;;;;;49.60;21.80;;;;;;;0.98;77.55;98515.98;25140;1311;3026101;-59
2022/01/29 01:37:55;;;;;;;60.50;23.80;;;;;;;1.22;76.75;98514.05;25077;1312;3050230;-56
2022/01/29 01:40:26;;;;;;;63.40;24.40;;;;;;;1.15;76.58;98516.20;25125;1312;3053447;-55
2022/01/29 01:43:00;;;;;;;48.90;21.70;;;;;;;0.81;77.09;98519.33;25085;1312;3027205;-55
2022/01/29 01:45:29;;;;;;;61.00;25.60;;;;;;;0.71;77.68;98515.41;25109;1312;3058500;-57
2022/01/29 01:47:58;;;;;;;59.50;24.10;;;;;;;0.55;77.88;98522.67;25107;1312;3026287;-56
2022/01/29 01:50:27;;;;;;;57.70;24.00;;;;;;;0.21;79.17;98530.02;25183;1312;3053772;-55
2022/01/29 01:52:56;;;;;;;47.20;19.60;;;;;;;0.28;79.50;98532.73;25140;1312;3026604;-57
2022/01/29 01:55:25;;;;;;;50.70;22.80;;;;;;;0.95;77.89;98532.93;25127;1312;3053167;-57
2022/01/29 01:57:54;;;;;;;58.60;24.90;;;;;;;1.37;75.81;98526.23;25105;1312;3026624;-54
2022/01/29 02:00:24;;;;;;;49.00;21.60;;;;;;;1.46;74.88;98527.81;25144;1312;3051349;-59
2022/01/29 02:02:53;;;;;;;58.40;23.60;;;;;;;1.41;74.69;98524.21;25140;1312;3026558;-55
2022/01/29 02:05:22;;;;;;;55.80;23.80;;;;;;;1.41;74.44;98522.15;25089;1312;3027019;-55
2022/01/29 02:07:52;;;;;;;63.90;25.10;;;;;;;1.19;74.88;98526.41;25106;1312;3051440;-54
2022/01/29 02:10:24;;;;;;;58.20;25.30;;;;;;;1.07;75.21;98524.92;25113;1312;3026757;-55
2022/01/29 02:12:57;;;;;;;52.70;21.10;;;;;;;0.71;76.80;98526.08;25164;1312;3027238;-57
2022/01/29 02:15:26;;;;;;;71.00;26.80;;;;;;;0.55;77.13;98524.23;25086;1312;3026909;-56
2022/01/29 02:17:56;;;;;;;54.50;23.90;;;;;;;0.70;77.19;98525.44;25100;1312;3026400;-56
2022/01/29 02:20:29;;;;;;;46.70;20.20;;;;;;;1.14;76.14;98521.25;25151;1312;3027351;-56
2022/01/29 02:23:00;;;;;;;51.00;22.50;;;;;;;1.55;74.54;98527.29;25097;1312;3027498;-56
2022/01/29 02:25:30;;;;;;;58.50;22.70;;;;;;;1.57;73.95;98522.41;25130;1312;3026281;-56
2022/01/29 02:28:03;;;;;;;65.60;24.30;;;;;;;1.25;75.24;98522.74;25156;1312;3027573;-56
2022/01/29 02:30:34;;;;;;;54.30;21.90;;;;;;;1.19;75.45;98518.82;25085;1311;3027809;-55
2022/01/29 02:33:05;;;;;;;56.30;23.70;;;;;;;1.13;75.44;98523.38;25146;1312;3026442;-54
2022/01/29 02:35:43;;;;;;;53.40;21.70;;;;;;;0.78;76.75;98523.77;25160;1312;3027008;-56
2022/01/29 02:38:13;;;;;;;53.60;22.60;;;;;;;0.86;76.77;98523.66;25093;1312;3051942;-55
2022/01/29 02:40:48;;;;;;;43.90;19.10;;;;;;;0.78;77.02;98519.11;25104;1312;3028796;-55
2022/01/29 02:43:22;;;;;;;50.60;21.60;;;;;;;1.40;75.94;98525.96;25146;1312;3053690;-53
2022/01/29 02:45:52;;;;;;;51.70;22.10;;;;;;;1.70;73.99;98525.16;25143;1312;3068142;-55
2022/01/29 02:48:22;;;;;;;53.60;23.40;;;;;;;1.78;74.04;98523.30;25179;1312;3026577;-55
2022/01/29 02:50:51;;;;;;;52.10;22.60;;;;;;;1.50;74.31;98525.94;25182;1312;3026710;-54
2022/01/29 02:53:20;;;;;;;45.20;20.10;;;;;;;1.37;74.82;98529.89;25081;1312;3026961;-58
2022/01/29 02:55:49;;;;;;;48.00;20.80;;;;;;;1.32;74.86;98536.11;25198;1312;3048321;-55
2022/01/29 02:58:18;;;;;;;43.50;20.90;;;;;;;1.15;75.33;98533.27;25113;1312;3026438;-59
2022/01/29 03:00:47;;;;;;;48.00;20.70;;;;;;;1.08;76.15;98532.86;25123;1311;3070503;-56
2022/01/29 03:03:16;;;;;;;49.50;21.40;;;;;;;1.11;75.84;98533.09;25109;1312;3027115;-54
2022/01/29 03:05:46;;;;;;;43.50;18.30;;;;;;;0.85;77.48;98534.05;25117;1312;3053889;-57
2022/01/29 03:08:15;;;;;;;39.10;17.90;;;;;;;1.54;76.27;98531.45;25161;1311;3027352;-55
2022/01/29 03:10:46;;;;;;;46.10;20.30;;;;;;;2.21;73.63;98526.20;25114;1312;3052464;-55
2022/01/29 03:13:16;;;;;;;49.60;19.90;;;;;;;2.13;73.47;98525.35;25211;1312;3026851;-58
2022/01/29 03:15:45;;;;;;;49.80;20.20;;;;;;;1.82;73.97;98526.05;25124;1312;3026419;-56
2022/01/29 03:18:14;;;;;;;49.50;21.40;;;;;;;1.45;75.66;98533.38;25120;1312;3029961;-51
2022/01/29 03:20:43;;;;;;;47.40;20.80;;;;;;;1.31;76.17;98533.04;25254;1312;3050138;-56
2022/01/29 03:23:13;;;;;;;49.00;20.40;;;;;;;1.21;76.69;98525.30;25174;1312;3027000;-56
2022/01/29 03:25:42;;;;;;;35.30;16.70;;;;;;;1.11;77.35;98537.05;25252;1312;3052015;-54
2022/01/29 03:28:12;;;;;;;41.40;17.60;;;;;;;1.08;77.62;98537.16;25113;1312;3029329;-54
2022/01/29 03:30:41;;;;;;;39.60;17.70;;;;;;;1.44;77.45;98534.95;25151;1312;3028468;-54
2022/01/29 03:33:10;;;;;;;43.50;18.50;;;;;;;2.04;75.94;98534.00;25114;1312;3053380;-55
2022/01/29 03:35:39;;;;;;;47.10;20.30;;;;;;;2.02;75.04;98542.71;25142;1311;3026594;-55
2022/01/29 03:38:08;;;;;;;53.20;21.20;;;;;;;1.77;75.64;98539.04;25071;1312;3026394;-56
2022/01/29 03:40:38;;;;;;;46.10;19.90;;;;;;;1.46;76.94;98540.07;25138;1312;3054726;-54
2022/01/29 03:43:11;;;;;;;50.60;22.00;;;;;;;1.42;77.16;98543.66;25175;1312;3026543;-55
2022/01/29 03:45:41;;;;;;;41.40;19.80;;;;;;;1.27;77.87;98543.20;25152;1312;3026693;-58
2022/01/29 03:48:10;;;;;;;46.80;21.80;;;;;;;1.12;78.16;98542.02;25117;1312;3026555;-57
2022/01/29 03:50:39;;;;;;;36.80;16.50;;;;;;;0.79;80.07;98547.36;25155;1312;3051857;-56
2022/01/29 03:53:08;;;;;;;33.90;15.20;;;;;;;1.27;79.36;98550.77;25102;1312;3027139;-56
2022/01/29 03:55:37;;;;;;;24.80;11.70;;;;;;;2.02;76.70;98539.42;25112;1312;3051772;-56
2022/01/29 03:58:05;;;;;;;34.30;16.60;;;;;;;2.08;75.26;98545.23;25154;1312;3026623;-56
2022/01/29 04:00:35;;;;;;;39.70;18.60;;;;;;;2.01;75.61;98543.27;25115;1312;3050447;-58
2022/01/29 04:03:04;;;;;;;38.80;19.90;;;;;;;1.64;76.44;98552.83;25128;1312;3026404;-56
2022/01/29 04:05:33;;;;;;;32.20;15.20;;;;;;;1.41;77.43;98555.44;25175;1312;3057987;-55
2022/01/29 04:08:06;;;;;;;40.70;17.50;;;;;;;1.23;78.39;98544.39;25107;1312;3026398;-55
2022/01/29 04:10:36;;;;;;;33.20;16.20;;;;;;;1.09;79.37;98556.98;25134;1312;3051519;-56
2022/01/29 04:13:06;;;;;;;27.80;13.80;;;;;;;1.78;77.86;98550.58;25133;1312;3030111;-59
2022/01/29 04:15:35;;;;;;;37.60;18.10;;;;;;;1.92;76.55;98546.20;25177;1312;3027089;-56
2022/01/29 04:18:05;;;;;;;40.80;18.40;;;;;;;1.93;76.51;98540.81;25159;1312;3027526;-54
2022/01/29 04:20:34;;;;;;;33.10;16.00;;;;;;;1.97;76.35;98546.88;25131;1312;3030614;-55
2022/01/29 04:23:06;;;;;;;43.40;20.20;;;;;;;1.88;76.12;98549.32;25083;1312;3052508;-54
2022/01/29 04:25:35;;;;;;;44.50;19.50;;;;;;;1.63;76.78;98554.07;25138;1312;3026129;-58
2022/01/29 04:28:06;;;;;;;35.40;17.10;;;;;;;1.44;77.65;98560.14;25102;1312;3029141;-53
2022/01/29 04:30:47;;;;;;;39.40;16.60;;;;;;;1.19;79.00;98563.16;25103;1312;3048710;-56
2022/01/29 04:35:47;;;;;;;33.30;17.30;;;;;;;2.20;76.15;98547.50;25135;1312;3026983;-54
2022/01/29 04:38:16;;;;;;;34.90;16.90;;;;;;;2.14;75.82;98550.38;25071;1312;3026325;-56
2022/01/29 04:40:45;;;;;;;33.40;15.50;;;;;;;2.24;75.35;98548.39;25132;1312;3052820;-57
2022/01/29 04:43:14;;;;;;;28.40;13.30;;;;;;;1.88;75.97;98556.73;25142;1312;3026528;-55
2022/01/29 04:45:44;;;;;;;32.50;15.90;;;;;;;1.61;76.99;98558.99;25111;1312;3049131;-57
2022/01/29 04:48:12;;;;;;;35.80;18.20;;;;;;;1.62;76.63;98558.63;25111;1312;3026835;-56
2022/01/29 04:50:42;;;;;;;37.30;17.70;;;;;;;1.40;77.60;98568.09;25123;1312;3057940;-54
2022/01/29 04:53:11;;;;;;;37.10;17.50;;;;;;;1.26;78.58;98573.42;25114;1312;3026289;-54
2022/01/29 04:55:40;;;;;;;33.90;16.30;;;;;;;1.99;76.96;98567.17;25172;1312;3053574;-56
2022/01/29 04:58:09;;;;;;;37.90;16.00;;;;;;;2.34;75.62;98566.47;25150;1312;3026362;-55
2022/01/29 05:00:38;;;;;;;31.80;15.60;;;;;;;2.08;75.86;98574.77;25070;1312;3029269;-53
2022/01/29 05:03:11;;;;;;;33.60;17.50;;;;;;;1.84;76.18;98580.20;25083;1312;3051915;-55
2022/01/29 05:05:41;;;;;;;38.70;18.80;;;;;;;1.68;77.14;98581.52;25092;1312;3056370;-57
2022/01/29 05:08:12;;;;;;;43.50;20.90;;;;;;;1.67;76.51;98576.04;25138;1312;3026769;-54
2022/01/29 05:10:41;;;;;;;43.10;20.20;;;;;;;1.44;77.59;98586.23;25144;1312;3026668;-54
2022/01/29 05:13:14;;;;;;;42.80;19.20;;;;;;;1.19;78.71;98597.32;25090;1312;3026770;-56
2022/01/29 05:15:57;;;;;;;44.40;24.20;;;;;;;1.47;78.22;98593.17;25192;1312;3053044;-56
2022/01/29 05:27:00;;;;;;;36.50;18.90;;;;;;;1.94;75.84;98595.54;25125;1312;3052245;-56
2022/01/29 05:29:31;;;;;;;49.70;24.30;;;;;;;1.96;75.19;98591.46;25118;1312;3052830;-53
2022/01/29 05:32:08;;;;;;;35.10;16.90;;;;;;;1.58;76.74;98603.13;25103;1312;3028964;-57
2022/01/29 05:34:38;;;;;;;40.30;19.40;;;;;;;1.54;76.92;98610.35;25100;1312;3058349;-57
2022/01/29 05:37:07;;;;;;;37.30;16.90;;;;;;;1.44;77.82;98615.20;25129;1312;3030649;-56
2022/01/29 05:39:37;;;;;;;32.10;16.30;;;;;;;2.05;76.64;98614.95;25126;1311;3053645;-57
2022/01/29 05:42:06;;;;;;;28.30;15.10;;;;;;;2.12;75.60;98612.63;25108;1312;3026464;-57
2022/01/29 05:44:35;;;;;;;38.20;18.80;;;;;;;2.10;75.53;98618.92;25160;1312;3027145;-58
2022/01/29 05:47:05;;;;;;;35.50;16.50;;;;;;;2.05;75.80;98620.14;25125;1312;3026499;-56
2022/01/29 05:49:35;;;;;;;37.40;18.50;;;;;;;1.75;76.55;98633.05;25186;1312;3059067;-56
2022/01/29 05:52:06;;;;;;;33.00;17.30;;;;;;;1.43;77.68;98633.52;25114;1312;3026793;-56
2022/01/29 05:54:35;;;;;;;30.80;14.30;;;;;;;1.36;77.99;98640.89;25161;1312;3028115;-55
2022/01/29 05:57:04;;;;;;;39.90;19.20;;;;;;;1.47;77.21;98632.89;25145;1312;3055716;-55
2022/01/29 05:59:36;;;;;;;26.30;12.80;;;;;;;1.08;79.14;98647.38;25078;1312;3027494;-56
2022/01/29 06:02:05;;;;;;;30.20;15.00;;;;;;;1.95;77.74;98639.55;25130;1312;3026711;-59
2022/01/29 06:04:34;;;;;;;33.10;16.60;;;;;;;2.57;75.30;98634.82;25124;1312;3027006;-58
2022/01/29 06:07:03;;;;;;;26.30;12.60;;;;;;;2.54;74.79;98638.94;25192;1312;3052068;-58
2022/01/29 06:09:32;;;;;;;31.00;15.40;;;;;;;2.45;74.68;98642.76;25155;1312;3026826;-58
2022/01/29 06:12:00;;;;;;;32.50;15.30;;;;;;;2.26;75.00;98643.01;25084;1312;3055242;-57
2022/01/29 06:14:29;;;;;;;29.60;15.90;;;;;;;2.08;75.45;98654.94;25136;1312;3026703;-57
2022/01/29 06:16:58;;;;;;;33.60;15.60;;;;;;;1.86;76.33;98657.31;25064;1312;3054113;-56
2022/01/29 06:19:28;;;;;;;25.90;14.10;;;;;;;1.83;76.64;98654.14;25077;1312;3026787;-57
2022/01/29 06:21:57;;;;;;;26.60;13.30;;;;;;;2.34;75.98;98653.59;25135;1312;3026937;-57
2022/01/29 06:24:27;;;;;;;23.50;10.90;;;;;;;2.40;75.05;98651.77;25153;1312;3055009;-57
2022/01/29 06:26:56;;;;;;;27.80;14.40;;;;;;;2.11;76.39;98653.77;25089;1312;3026636;-59
2022/01/29 06:29:25;;;;;;;25.40;12.00;;;;;;;2.10;76.74;98649.48;25123;1312;3026831;-57
2022/01/29 06:31:54;;;;;;;25.60;12.40;;;;;;;2.19;76.41;98654.36;25093;1310;3054219;-58
2022/01/29 06:34:23;;;;;;;23.40;13.40;;;;;;;2.04;76.59;98650.96;25153;1312;3026249;-56
2022/01/29 06:36:52;;;;;;;33.10;13.70;;;;;;;2.00;76.63;98658.70;25101;1312;3054796;-58
2022/01/29 06:39:21;;;;;;;21.40;11.10;;;;;;;1.85;77.97;98654.61;25138;1312;3027331;-58
2022/01/29 06:41:50;;;;;;;19.20;10.90;;;;;;;2.86;75.58;98662.52;25082;1312;3048264;-59
2022/01/29 06:44:19;;;;;;;24.80;13.00;;;;;;;2.39;75.58;98658.58;25128;1312;3026544;-60
2022/01/29 06:46:49;;;;;;;24.10;12.60;;;;;;;2.58;75.66;98656.23;25110;1312;3069927;-57
2022/01/29 06:49:18;;;;;;;27.20;13.50;;;;;;;2.54;74.99;98660.38;25093;1312;3028426;-58
2022/01/29 06:51:47;;;;;;;22.80;12.00;;;;;;;2.32;75.51;98664.20;25128;1312;3053745;-57
2022/01/29 06:54:15;;;;;;;23.40;11.40;;;;;;;2.21;75.67;98662.20;25151;1312;3026523;-55
2022/01/29 06:56:44;;;;;;;17.60;9.20;;;;;;;1.97;76.64;98657.44;25107;1311;3052847;-57
2022/01/29 06:59:13;;;;;;;18.70;10.80;;;;;;;2.25;77.05;98661.36;25138;1312;3028180;-55
2022/01/29 07:01:42;;;;;;;18.90;9.60;;;;;;;2.94;74.96;98653.19;25093;1312;3049195;-57
2022/01/29 07:04:11;;;;;;;18.50;11.00;;;;;;;3.03;73.83;98651.77;25147;1312;3027272;-60
2022/01/29 07:06:40;;;;;;;24.90;13.00;;;;;;;2.99;73.34;98659.05;25107;1312;3056252;-57
2022/01/29 07:09:09;;;;;;;21.50;10.40;;;;;;;2.68;74.30;98664.46;25091;1312;3026603;-58
2022/01/29 07:11:38;;;;;;;28.20;14.30;;;;;;;2.62;74.36;98663.87;25104;1312;3052595;-58
2022/01/29 07:14:07;;;;;;;28.60;13.20;;;;;;;2.42;74.79;98672.95;25147;1311;3026369;-59
2022/01/29 07:16:36;;;;;;;23.40;11.30;;;;;;;2.22;76.16;98676.70;25112;1312;3052746;-57
2022/01/29 07:19:05;;;;;;;18.70;9.40;;;;;;;2.67;75.64;98674.05;25080;1312;3026681;-58
2022/01/29 07:21:35;;;;;;;24.70;11.80;;;;;;;3.24;73.91;98669.90;25119;1312;3050684;-57
2022/01/29 07:24:05;;;;;;;20.60;10.80;;;;;;;3.44;72.58;98673.73;25130;1312;3026647;-57
2022/01/29 07:26:34;;;;;;;19.40;10.20;;;;;;;3.27;72.50;98670.81;25139;1312;3026947;-60
2022/01/29 07:29:03;;;;;;;27.00;14.10;;;;;;;3.25;72.13;98674.17;25168;1312;3026947;-60
2022/01/29 07:31:32;;;;;;;24.50;13.50;;;;;;;2.94;73.04;98679.85;25142;1312;3054068;-58
2022/01/29 07:34:01;;;;;;;28.80;12.90;;;;;;;2.66;73.80;98693.80;25082;1312;3028231;-58
2022/01/29 07:36:29;;;;;;;26.30;13.60;;;;;;;2.47;74.32;98687.79;25115;1312;3053301;-56
2022/01/29 07:38:58;;;;;;;27.80;13.40;;;;;;;2.39;74.67;98692.93;25113;1312;3026313;-58
2022/01/29 07:41:27;;;;;;;27.80;12.40;;;;;;;2.41;75.18;98697.72;25166;1312;3068470;-58
2022/01/29 07:43:56;;;;;;;20.40;11.10;;;;;;;3.35;73.12;98693.00;25068;1312;3028548;-59
2022/01/29 07:46:25;;;;;;;14.70;7.90;;;;;;;3.55;71.70;98693.48;25137;1312;3051213;-58
2022/01/29 07:48:54;;;;;;;22.30;11.10;;;;;;;3.56;71.31;98695.00;25134;1312;3027145;-57
2022/01/29 07:51:22;;;;;;;24.20;12.10;;;;;;;3.33;71.94;98694.47;25128;1312;3053566;-58
2022/01/29 07:53:51;;;;;;;23.50;11.60;;;;;;;3.22;72.05;98697.67;25133;1312;3026308;-62
2022/01/29 07:56:20;;;;;;;21.50;12.10;;;;;;;2.98;72.92;98710.46;25109;1312;3049266;-57
2022/01/29 07:58:50;;;;;;;22.70;11.10;;;;;;;3.01;72.52;98718.65;25103;1312;3029262;-58
2022/01/29 08:01:19;;;;;;;19.00;10.40;;;;;;;2.93;72.55;98716.88;25154;1312;3026400;-59
2022/01/29 08:03:50;;;;;;;21.50;11.60;;;;;;;2.91;72.94;98716.46;25095;1312;3026355;-59
2022/01/29 08:06:24;;;;;;;18.10;8.40;;;;;;;2.84;73.34;98725.23;25124;1312;3055346;-57
2022/01/29 08:08:52;;;;;;;13.80;7.50;;;;;;;3.56;71.86;98721.81;25097;1312;3026615;-56
2022/01/29 08:11:22;;;;;;;13.80;6.80;;;;;;;4.24;69.27;98726.75;25096;1312;3026647;-59
2022/01/29 08:13:52;;;;;;;13.60;7.40;;;;;;;3.90;69.48;98721.05;25128;1312;3026696;-60
2022/01/29 08:16:21;;;;;;;16.90;8.90;;;;;;;3.69;69.90;98722.84;25138;1311;3053115;-58
2022/01/29 08:18:50;;;;;;;13.10;7.20;;;;;;;3.71;69.23;98731.23;25076;1312;3026122;-54
2022/01/29 08:21:19;;;;;;;14.20;7.80;;;;;;;3.40;70.20;98733.09;25160;1312;3054539;-58
2022/01/29 08:23:48;;;;;;;13.00;6.50;;;;;;;2.98;71.91;98742.46;25099;1312;3026910;-61
2022/01/29 08:26:17;;;;;;;14.80;8.30;;;;;;;2.98;71.86;98740.77;25130;1312;3052042;-59
2022/01/29 08:28:46;;;;;;;15.50;6.50;;;;;;;2.93;72.11;98746.64;25116;1312;3026603;-59
2022/01/29 08:31:15;;;;;;;10.40;5.70;;;;;;;2.89;72.27;98742.31;25131;1312;3026962;-58
2022/01/29 08:33:44;;;;;;;10.40;5.00;;;;;;;2.90;72.77;98744.55;25068;1312;3048953;-58
2022/01/29 08:36:13;;;;;;;11.90;5.40;;;;;;;3.70;71.18;98737.33;25156;1312;3026296;-57
2022/01/29 08:38:42;;;;;;;8.60;4.00;;;;;;;4.12;69.58;98743.29;25097;1312;3058790;-59
2022/01/29 08:41:11;;;;;;;8.20;4.40;;;;;;;3.99;68.82;98741.10;25142;1312;3029777;-57
2022/01/29 08:43:41;;;;;;;7.90;4.60;;;;;;;3.74;69.40;98739.25;25098;1312;3055967;-57
2022/01/29 08:46:10;;;;;;;6.00;4.00;;;;;;;3.65;69.56;98742.39;25114;1312;3026432;-58
2022/01/29 08:48:39;;;;;;;9.00;3.80;;;;;;;3.11;71.40;98749.23;25125;1312;3027420;-57
2022/01/29 08:51:08;;;;;;;14.60;4.90;;;;;;;3.09;71.64;98750.33;25105;1312;3030168;-55
2022/01/29 08:53:38;;;;;;;6.80;3.70;;;;;;;2.98;72.01;98751.63;25155;1312;3056461;-56
2022/01/29 08:56:07;;;;;;;8.80;4.50;;;;;;;2.89;71.99;98760.98;25094;1312;3026320;-58
2022/01/29 08:58:36;;;;;;;10.20;5.00;;;;;;;2.68;73.00;98757.86;25134;1312;3050805;-59
2022/01/29 09:01:07;;;;;;;9.10;3.80;;;;;;;2.65;73.37;98759.02;25118;1312;3026128;-59
2022/01/29 09:03:37;;;;;;;10.80;4.50;;;;;;;3.25;72.50;98757.11;25088;1312;3026645;-57
2022/01/29 09:06:06;;;;;;;12.50;5.00;;;;;;;3.32;72.16;98754.21;25108;1312;3026423;-59
2022/01/29 09:08:36;;;;;;;9.00;4.50;;;;;;;3.60;71.56;98752.69;25137;1312;3026933;-59
2022/01/29 09:11:05;;;;;;;14.40;5.50;;;;;;;3.48;71.17;98750.22;25149;1312;3027679;-58
2022/01/29 09:13:34;;;;;;;7.60;4.40;;;;;;;3.12;72.27;98759.54;25099;1312;3052746;-58
2022/01/29 09:16:03;;;;;;;7.20;3.60;;;;;;;2.86;73.50;98760.80;25143;1312;3028026;-57
2022/01/29 09:18:33;;;;;;;9.80;5.00;;;;;;;2.97;72.55;98761.36;25168;1312;3049924;-58
2022/01/29 09:21:02;;;;;;;9.80;4.10;;;;;;;2.84;72.94;98764.82;25112;1312;3026400;-58
2022/01/29 09:23:32;;;;;;;10.50;4.40;;;;;;;2.62;74.03;98756.35;25083;1312;3058008;-58
2022/01/29 09:26:01;;;;;;;6.90;3.40;;;;;;;2.78;73.27;98767.48;25145;1312;3027184;-58
2022/01/29 09:28:31;;;;;;;9.10;4.20;;;;;;;3.39;72.31;98757.74;25127;1312;3053307;-59
2022/01/29 09:31:00;;;;;;;9.20;4.20;;;;;;;3.79;70.75;98753.06;25125;1312;3028966;-56
2022/01/29 09:33:29;;;;;;;10.30;3.80;;;;;;;3.61;70.75;98769.77;25111;1312;3050768;-58
2022/01/29 09:35:58;;;;;;;12.60;4.90;;;;;;;3.32;70.86;98765.80;25119;1312;3026453;-58
2022/01/29 09:38:27;;;;;;;9.10;5.20;;;;;;;3.11;71.93;98761.46;25111;1312;3048529;-58
2022/01/29 09:40:56;;;;;;;13.40;4.90;;;;;;;2.92;72.49;98775.08;25141;1312;3027231;-57
2022/01/29 09:43:28;;;;;;;9.20;4.60;;;;;;;2.80;72.51;98774.70;25114;1312;3071031;-56
2022/01/29 09:45:57;;;;;;;10.50;4.70;;;;;;;2.65;73.20;98778.89;25205;1312;3027774;-58
2022/01/29 09:48:30;;;;;;;14.00;4.60;;;;;;;2.44;74.22;98782.64;25128;1312;3026509;-56
2022/01/29 09:50:59;;;;;;;7.70;3.50;;;;;;;2.50;74.15;98784.48;25179;1312;3027195;-58
2022/01/29 09:53:28;;;;;;;9.00;4.30;;;;;;;3.21;72.51;98779.60;25149;1312;3026640;-57
2022/01/29 09:55:57;;;;;;;10.40;3.70;;;;;;;3.69;70.55;98778.63;25153;1312;3054809;-58
2022/01/29 09:58:26;;;;;;;9.80;4.50;;;;;;;3.74;70.24;98774.77;25102;1312;3026844;-57
2022/01/29 10:00:56;;;;;;;11.00;4.70;;;;;;;3.59;69.99;98784.23;25167;1312;3047150;-58
2022/01/29 10:03:26;;;;;;;10.30;4.30;;;;;;;3.41;70.19;98780.33;25139;1312;3026746;-54
2022/01/29 10:05:57;;;;;;;12.20;5.00;;;;;;;3.27;70.92;98781.98;25116;1312;3027565;-57
2022/01/29 10:08:26;;;;;;;9.50;4.10;;;;;;;3.30;70.51;98787.37;25089;1312;3026408;-58
2022/01/29 10:10:56;;;;;;;6.80;3.70;;;;;;;2.89;72.03;98792.81;25116;1312;3028931;-60
2022/01/29 10:13:37;;;;;;;12.00;5.20;;;;;;;2.66;72.88;98784.41;25140;1312;3050961;-58
2022/01/29 10:16:09;;;;;;;7.70;3.70;;;;;;;2.57;73.61;98795.11;25127;1312;3056801;-59
2022/01/29 10:18:39;;;;;;;6.40;3.50;;;;;;;3.16;72.86;98791.76;25089;1312;3026435;-59
2022/01/29 10:21:26;;;;;;;10.40;5.30;;;;;;;3.75;70.76;98797.42;25113;1312;3027425;-58
2022/01/29 10:24:06;;;;;;;6.70;4.10;;;;;;;3.55;70.17;98793.23;25198;1312;3051437;-59
2022/01/29 10:26:37;;;;;;;6.60;4.10;;;;;;;3.21;71.37;98800.20;25148;1312;3069496;-57
2022/01/29 10:29:08;;;;;;;7.50;4.10;;;;;;;3.30;70.87;98799.63;25066;1311;3027111;-57
2022/01/29 10:31:39;;;;;;;8.90;5.20;;;;;;;3.03;71.46;98799.19;25131;1312;3029864;-55
2022/01/29 10:34:32;;;;;;;7.70;4.40;;;;;;;2.92;72.13;98799.80;25149;1312;3027587;-57
2022/01/29 10:37:20;;;;;;;6.80;4.10;;;;;;;2.72;72.50;98807.67;25138;1312;3056823;-59
2022/01/29 10:40:01;;;;;;;13.30;5.60;;;;;;;2.39;73.92;98804.95;25170;1312;3050170;-57
2022/01/29 10:42:32;;;;;;;12.50;6.30;;;;;;;2.48;73.42;98805.83;25138;1312;3053540;-57
2022/01/29 10:45:04;;;;;;;15.60;5.50;;;;;;;2.58;73.34;98808.05;25175;1312;3027182;-57
2022/01/29 10:47:55;;;;;;;9.20;5.50;;;;;;;3.06;72.24;98813.24;25113;1312;3026682;-59
2022/01/29 10:50:24;;;;;;;7.30;4.50;;;;;;;3.82;69.99;98813.04;25133;1312;3048991;-59
2022/01/29 10:52:56;;;;;;;10.80;5.40;;;;;;;3.56;69.80;98815.68;25145;1312;3027020;-55
2022/01/29 10:55:24;;;;;;;7.80;4.70;;;;;;;3.06;71.38;98827.96;25113;1312;3027558;-56
2022/01/29 10:57:53;;;;;;;10.70;6.10;;;;;;;2.88;71.89;98824.55;25136;1312;3026578;-58
2022/01/29 11:00:24;;;;;;;10.00;5.60;;;;;;;2.76;72.32;98823.63;25099;1312;3050443;-59
2022/01/29 11:02:54;;;;;;;10.00;6.40;;;;;;;2.69;72.27;98828.19;25104;1312;3026218;-56
2022/01/29 11:05:26;;;;;;;13.10;7.30;;;;;;;2.53;72.85;98833.65;25089;1312;3026534;-60
2022/01/29 11:07:56;;;;;;;13.80;6.30;;;;;;;2.29;73.93;98830.05;25160;1312;3026434;-59
2022/01/29 11:10:25;;;;;;;12.00;5.00;;;;;;;2.39;73.74;98830.19;25112;1312;3026510;-58
2022/01/29 11:12:54;;;;;;;8.40;4.60;;;;;;;2.91;72.93;98824.24;25089;1312;3026508;-58
2022/01/29 11:15:25;;;;;;;13.00;5.10;;;;;;;3.11;71.31;98827.25;25149;1312;3050614;-58
2022/01/29 11:17:55;;;;;;;14.00;6.90;;;;;;;3.18;70.84;98830.95;25157;1312;3026723;-57
2022/01/29 11:20:24;;;;;;;11.60;5.80;;;;;;;2.88;71.83;98837.33;25078;1315;3026602;-56
2022/01/29 11:22:53;;;;;;;14.80;7.00;;;;;;;3.06;71.11;98834.55;25125;1312;3051369;-57
2022/01/29 11:25:23;;;;;;;11.70;7.60;;;;;;;2.79;71.82;98835.45;25134;1312;3026877;-57
2022/01/29 11:28:15;;;;;;;17.40;8.40;;;;;;;2.65;72.08;98843.23;25121;1312;3056226;-59
2022/01/29 11:30:45;;;;;;;15.50;8.60;;;;;;;2.35;72.86;98841.76;25145;1312;3050023;-57
2022/01/29 11:33:14;;;;;;;15.30;8.40;;;;;;;2.33;73.24;98850.12;25104;1312;3027479;-59
2022/01/29 11:35:54;;;;;;;21.00;9.30;;;;;;;2.38;73.18;98845.45;25137;1312;3026527;-58